Time;durP1;ratioP1;P1;durP2;ratioP2;P2;SDS_P1;SDS_P2;PMS_P1;PMS_P2;Temp;Humidity;BMP_temperature;BMP_pressure;BME280_temperature;BME280_humidity;BME280_pressure;Samples;Min_cycle;Max_cycle;Signal;HPM_P1;HPM_P2
2022/11/21 00:00:23;;;;;;;41.45;15.05;;;2.90;99.90;;;;;;5033527;28;20022;-74
2022/11/21 00:02:48;;;;;;;38.47;15.38;;;2.90;99.90;;;;;;5034125;28;20420;-74
2022/11/21 00:05:14;;;;;;;39.50;16.10;;;2.90;99.90;;;;;;5033568;28;20014;-74
2022/11/21 00:07:40;;;;;;;44.05;16.88;;;2.90;99.90;;;;;;5033472;28;20064;-74
2022/11/21 00:10:05;;;;;;;45.03;17.80;;;2.90;99.90;;;;;;5016137;28;20033;-74
2022/11/21 00:12:31;;;;;;;40.70;15.48;;;2.90;99.90;;;;;;5033498;28;20104;-74
2022/11/21 00:14:57;;;;;;;39.10;16.00;;;2.90;99.90;;;;;;5033314;28;20040;-74
2022/11/21 00:17:23;;;;;;;39.38;16.02;;;2.90;99.90;;;;;;5033385;28;20036;-74
2022/11/21 00:19:49;;;;;;;41.55;15.88;;;;;;;;;;5067401;22;20037;-74
2022/11/21 00:22:14;;;;;;;45.20;16.13;;;2.90;99.90;;;;;;5053267;28;20060;-74
2022/11/21 00:24:43;;;;;;;37.20;15.48;;;2.90;99.90;;;;;;5035211;28;20052;-75
2022/11/21 00:27:08;;;;;;;37.92;17.20;;;2.90;99.90;;;;;;5053699;28;20074;-75
2022/11/21 00:29:34;;;;;;;36.75;15.85;;;2.90;99.90;;;;;;5053096;28;20434;-75
2022/11/21 00:32:02;;;;;;;42.63;17.48;;;2.80;99.90;;;;;;5053080;28;20364;-74
2022/11/21 00:34:28;;;;;;;37.15;15.02;;;2.90;99.90;;;;;;5052824;28;20024;-74
2022/11/21 00:36:56;;;;;;;37.78;15.25;;;2.90;99.90;;;;;;5053537;28;20033;-74
2022/11/21 00:39:22;;;;;;;39.55;16.17;;;;;;;;;;5052919;28;20029;-75
2022/11/21 00:41:47;;;;;;;37.65;14.55;;;2.80;99.90;;;;;;5053480;28;20028;-75
2022/11/21 00:44:16;;;;;;;34.22;13.98;;;2.80;99.90;;;;;;5053075;28;20021;-74
2022/11/21 00:46:41;;;;;;;38.55;15.93;;;2.80;99.90;;;;;;5035080;28;20025;-75
2022/11/21 00:49:07;;;;;;;39.72;15.10;;;2.80;99.90;;;;;;5035777;28;20036;-74
2022/11/21 00:51:33;;;;;;;42.28;17.08;;;2.80;99.90;;;;;;5053236;28;20052;-74
2022/11/21 00:53:58;;;;;;;38.65;16.38;;;4.50;99.90;;;;;;5035455;28;20025;-74
2022/11/21 00:56:24;;;;;;;42.17;17.13;;;2.80;99.90;;;;;;5034849;28;20445;-75
2022/11/21 00:58:49;;;;;;;36.65;14.77;;;2.80;99.90;;;;;;5034827;28;20025;-75
2022/11/21 01:01:15;;;;;;;40.63;16.13;;;2.70;99.90;;;;;;5036959;28;20077;-75
2022/11/21 01:03:41;;;;;;;38.97;15.68;;;2.80;99.90;;;;;;5039121;28;20155;-75
2022/11/21 01:06:09;;;;;;;39.97;15.98;;;2.80;99.90;;;;;;5056723;28;20475;-74
2022/11/21 01:08:36;;;;;;;39.70;16.08;;;2.80;99.90;;;;;;5057214;28;20096;-75
2022/11/21 01:11:08;;;;;;;40.33;16.30;;;2.80;99.90;;;;;;5056543;28;20029;-74
2022/11/21 01:13:34;;;;;;;47.15;16.63;;;2.70;99.90;;;;;;5038643;28;20036;-75
2022/11/21 01:16:05;;;;;;;41.28;15.95;;;2.70;99.90;;;;;;5057108;28;20039;-75
2022/11/21 01:18:32;;;;;;;41.15;15.60;;;3.10;99.90;;;;;;5038635;28;20394;-75
2022/11/21 01:21:06;;;;;;;44.67;15.55;;;2.80;99.90;;;;;;5056846;28;20356;-74
2022/11/21 01:23:32;;;;;;;45.10;15.43;;;2.70;99.90;;;;;;5038468;28;20059;-74
2022/11/21 01:26:05;;;;;;;39.80;14.20;;;2.80;99.90;;;;;;5038390;28;20060;-74
2022/11/21 01:28:36;;;;;;;46.97;14.45;;;2.70;99.90;;;;;;5056368;28;20495;-74
2022/11/21 01:31:03;;;;;;;52.30;13.98;;;2.60;99.90;;;;;;5038307;28;20082;-74
2022/11/21 01:33:32;;;;;;;47.53;14.23;;;2.60;99.90;;;;;;5056217;28;20025;-74
2022/11/21 01:36:09;;;;;;;39.67;14.57;;;2.60;99.90;;;;;;5056131;28;20079;-74
2022/11/21 01:38:34;;;;;;;39.60;14.82;;;2.50;99.90;;;;;;5038351;28;20020;-75
2022/11/21 01:41:00;;;;;;;42.55;14.50;;;2.50;99.90;;;;;;5056270;28;20025;-74
2022/11/21 01:43:25;;;;;;;43.97;16.35;;;2.50;99.90;;;;;;5056164;28;20017;-75
2022/11/21 01:46:00;;;;;;;39.92;14.57;;;2.60;99.90;;;;;;5056030;28;20048;-75
2022/11/21 01:48:29;;;;;;;48.70;16.92;;;2.50;99.90;;;;;;5038401;28;20017;-74
2022/11/21 01:50:57;;;;;;;42.75;15.77;;;2.70;99.90;;;;;;5038344;28;20021;-74
2022/11/21 01:53:23;;;;;;;42.35;15.60;;;2.60;99.90;;;;;;5056082;28;20117;-74
2022/11/21 01:55:52;;;;;;;46.08;17.33;;;2.50;99.90;;;;;;5037869;28;20032;-74
2022/11/21 01:58:19;;;;;;;44.08;15.13;;;2.50;99.90;;;;;;5055746;28;20476;-74
2022/11/21 02:00:46;;;;;;;46.20;15.13;;;2.60;99.90;;;;;;5037755;28;20491;-74
2022/11/21 02:03:19;;;;;;;43.78;16.27;;;2.60;99.90;;;;;;5055530;28;20024;-74
2022/11/21 02:05:48;;;;;;;47.67;16.98;;;2.60;99.90;;;;;;5038149;28;20032;-74
2022/11/21 02:08:21;;;;;;;45.40;16.60;;;2.60;99.90;;;;;;5055574;28;20501;-74
2022/11/21 02:11:16;;;;;;;40.97;14.98;;;2.40;99.90;;;;;;5055677;28;20109;-75
2022/11/21 02:13:42;;;;;;;52.80;14.90;;;2.60;99.90;;;;;;5055443;28;20025;-74
2022/11/21 02:16:10;;;;;;;40.08;14.65;;;2.50;99.90;;;;;;5055571;28;20119;-74
2022/11/21 02:18:36;;;;;;;39.85;12.82;;;4.70;99.90;;;;;;5055318;28;20029;-74
2022/11/21 02:21:18;;;;;;;40.22;14.80;;;2.60;99.90;;;;;;5055579;28;20055;-74
2022/11/21 02:23:47;;;;;;;41.15;13.73;;;2.60;99.90;;;;;;5055482;28;20092;-74
2022/11/21 02:26:13;;;;;;;42.75;13.10;;;;;;;;;;5037636;28;20055;-75
2022/11/21 02:28:39;;;;;;;44.60;14.70;;;2.50;99.90;;;;;;5037702;28;20035;-74
2022/11/21 02:31:05;;;;;;;39.67;12.82;;;2.50;99.90;;;;;;5055288;28;20104;-74
2022/11/21 02:33:34;;;;;;;40.55;14.50;;;2.50;99.90;;;;;;5055474;28;20108;-74
2022/11/21 02:36:00;;;;;;;40.45;13.20;;;2.50;99.90;;;;;;5037228;28;20330;-75
2022/11/21 02:38:28;;;;;;;37.17;12.77;;;2.50;99.90;;;;;;5037123;28;20028;-74
2022/11/21 02:41:08;;;;;;;40.25;12.40;;;2.50;99.90;;;;;;5037566;28;20055;-73
2022/11/21 02:44:16;;;;;;;37.88;12.43;;;2.40;99.90;;;;;;5037006;28;20484;-74
2022/11/21 02:46:50;;;;;;;36.88;11.05;;;2.40;99.90;;;;;;4974173;28;20030;-74
2022/11/21 02:49:25;;;;;;;37.53;11.13;;;2.40;99.90;;;;;;5030833;28;20025;-75
2022/11/21 02:51:51;;;;;;;48.70;11.73;;;2.30;99.90;;;;;;5037486;28;20082;-74
2022/11/21 02:54:16;;;;;;;45.53;11.63;;;2.30;99.90;;;;;;5036904;28;20029;-74
2022/11/21 02:56:45;;;;;;;43.05;12.05;;;2.30;99.90;;;;;;5037055;28;20057;-74
2022/11/21 02:59:13;;;;;;;38.35;10.85;;;2.30;99.90;;;;;;5055168;28;20115;-74
2022/11/21 03:01:42;;;;;;;49.92;11.30;;;2.30;99.90;;;;;;5054930;28;20028;-74
2022/11/21 03:04:10;;;;;;;54.65;12.43;;;2.30;99.90;;;;;;5054582;28;20104;-74
2022/11/21 03:06:38;;;;;;;57.50;9.20;;;2.30;99.90;;;;;;5054473;28;20556;-75
2022/11/21 03:09:04;;;;;;;70.18;12.13;;;2.30;99.90;;;;;;5036527;28;20278;-75
2022/11/21 03:11:29;;;;;;;38.80;10.70;;;2.60;99.90;;;;;;5054477;28;20029;-75
2022/11/21 03:13:58;;;;;;;60.08;10.95;;;2.30;99.90;;;;;;5054348;28;20025;-75
2022/11/21 03:16:23;;;;;;;45.03;11.75;;;2.30;99.90;;;;;;5054233;28;20029;-75
2022/11/21 03:18:49;;;;;;;47.95;11.98;;;2.20;99.90;;;;;;5035967;28;20059;-75
2022/11/21 03:21:16;;;;;;;96.43;13.15;;;2.20;99.90;;;;;;5054140;28;20052;-75
2022/11/21 03:23:44;;;;;;;128.30;14.15;;;2.40;99.90;;;;;;5036124;28;20025;-75
2022/11/21 03:26:10;;;;;;;82.50;10.90;;;2.30;99.90;;;;;;5054203;28;20017;-75
2022/11/21 03:28:35;;;;;;;79.60;10.93;;;2.30;99.90;;;;;;5054217;28;20096;-75
2022/11/21 03:31:02;;;;;;;100.90;12.05;;;2.20;99.90;;;;;;5054108;28;20056;-75
2022/11/21 03:33:34;;;;;;;56.67;12.05;;;2.20;99.90;;;;;;5036312;28;20021;-75
2022/11/21 03:35:59;;;;;;;52.97;11.05;;;2.20;99.90;;;;;;5054369;28;20107;-75
2022/11/21 03:38:25;;;;;;;70.40;10.45;;;2.20;99.90;;;;;;5036222;28;20025;-75
2022/11/21 03:40:50;;;;;;;49.13;10.88;;;2.20;99.90;;;;;;5036396;28;20036;-75
2022/11/21 03:43:16;;;;;;;57.75;12.45;;;2.20;99.90;;;;;;5036144;28;20021;-76
2022/11/21 03:45:44;;;;;;;65.10;11.48;;;2.20;99.90;;;;;;5054356;28;20495;-76
2022/11/21 03:48:10;;;;;;;170.05;13.40;;;2.20;99.90;;;;;;5036144;28;20063;-75
2022/11/21 03:50:44;;;;;;;62.60;12.00;;;2.20;99.90;;;;;;5035949;28;20483;-75
2022/11/21 03:53:10;;;;;;;57.33;11.63;;;2.20;99.90;;;;;;5054335;28;20532;-75
2022/11/21 03:55:35;;;;;;;68.45;12.57;;;2.30;99.90;;;;;;5054214;28;20059;-75
2022/11/21 03:58:03;;;;;;;56.95;12.00;;;2.30;99.90;;;;;;5035943;28;20032;-75
2022/11/21 04:00:29;;;;;;;54.17;11.93;;;3.20;99.90;;;;;;5053719;28;20112;-75
2022/11/21 04:02:55;;;;;;;64.13;12.15;;;;;;;;;;5053839;28;20071;-75
2022/11/21 04:05:20;;;;;;;53.20;11.10;;;2.30;99.90;;;;;;5053502;28;20029;-74
2022/11/21 04:07:49;;;;;;;75.90;11.73;;;2.30;99.90;;;;;;5053856;28;20021;-74
2022/11/21 04:10:14;;;;;;;49.28;12.07;;;2.00;99.90;;;;;;5053794;28;20568;-75
2022/11/21 04:12:43;;;;;;;58.15;12.07;;;2.20;99.90;;;;;;5053690;28;20100;-74
2022/11/21 04:15:09;;;;;;;66.95;10.93;;;2.20;99.90;;;;;;5053477;28;20561;-74
2022/11/21 04:17:34;;;;;;;84.72;12.57;;;2.20;99.90;;;;;;5054026;28;20025;-74
2022/11/21 04:20:03;;;;;;;59.58;10.60;;;2.20;99.90;;;;;;5035426;28;20032;-75
2022/11/21 04:22:29;;;;;;;44.42;10.82;;;2.20;99.90;;;;;;5053916;28;20036;-75
2022/11/21 04:24:56;;;;;;;77.03;11.30;;;2.20;99.90;;;;;;5053386;28;20021;-75
2022/11/21 04:27:23;;;;;;;57.03;11.25;;;2.20;99.90;;;;;;5053131;28;20094;-75
2022/11/21 04:29:48;;;;;;;61.97;12.48;;;2.10;99.90;;;;;;5053101;28;20028;-74
2022/11/21 04:32:14;;;;;;;50.80;11.80;;;2.10;99.90;;;;;;5035298;28;20085;-74
2022/11/21 04:34:41;;;;;;;69.00;11.95;;;2.20;99.90;;;;;;5034755;28;20136;-74
2022/11/21 04:37:10;;;;;;;52.70;12.65;;;2.20;99.90;;;;;;5052730;28;20025;-74
2022/11/21 04:39:36;;;;;;;65.97;13.55;;;2.20;99.90;;;;;;5035292;28;20048;-74
2022/11/21 04:42:01;;;;;;;48.97;12.38;;;2.20;99.90;;;;;;5053174;28;20061;-74
2022/11/21 04:44:27;;;;;;;75.88;12.85;;;;;;;;;;5035301;28;20017;-73
2022/11/21 04:46:53;;;;;;;66.30;14.45;;;;;;;;;;5035182;28;20064;-74
2022/11/21 04:49:19;;;;;;;74.75;13.88;;;2.20;99.90;;;;;;5035141;28;20051;-73
2022/11/21 04:51:47;;;;;;;75.25;14.60;;;2.20;99.90;;;;;;5052989;28;20118;-74
2022/11/21 04:54:13;;;;;;;71.57;13.35;;;2.20;99.90;;;;;;5053185;28;20029;-74
2022/11/21 04:56:39;;;;;;;66.95;14.20;;;;;;;;;;5052992;28;20037;-74
2022/11/21 04:59:05;;;;;;;87.35;14.80;;;2.30;99.90;;;;;;5035066;28;20036;-74
2022/11/21 05:01:31;;;;;;;81.90;14.20;;;2.30;99.90;;;;;;5035207;28;20021;-75
2022/11/21 05:03:56;;;;;;;70.45;13.52;;;2.30;99.90;;;;;;5035188;28;20021;-74
2022/11/21 05:06:22;;;;;;;71.55;14.32;;;;;;;;;;5052563;28;20035;-74
2022/11/21 05:08:48;;;;;;;72.35;15.30;;;2.30;99.90;;;;;;5052733;28;20047;-74
2022/11/21 05:13:58;;;;;;;69.88;14.05;;;2.40;99.90;;;;;;5053841;28;20043;-74
2022/11/21 05:16:24;;;;;;;81.75;16.20;;;2.40;99.90;;;;;;5035211;28;20025;-74
2022/11/21 05:18:49;;;;;;;75.88;14.20;;;2.40;99.90;;;;;;5053200;28;20033;-74
2022/11/21 05:21:15;;;;;;;58.10;14.75;;;2.40;99.90;;;;;;5035195;28;20029;-74
2022/11/21 05:23:44;;;;;;;80.63;16.33;;;2.50;99.90;;;;;;5035172;28;20109;-73
2022/11/21 05:26:09;;;;;;;107.78;16.13;;;2.50;99.90;;;;;;5035713;28;20024;-73
2022/11/21 05:28:35;;;;;;;90.90;15.73;;;2.60;99.90;;;;;;5034935;28;20018;-74
2022/11/21 05:31:00;;;;;;;66.72;15.90;;;2.50;99.90;;;;;;5052452;28;20037;-74
2022/11/21 05:33:29;;;;;;;63.55;15.25;;;2.50;99.90;;;;;;5052616;28;20038;-74
2022/11/21 05:35:57;;;;;;;96.50;16.73;;;2.60;99.90;;;;;;5034549;28;20032;-74
2022/11/21 05:38:22;;;;;;;53.42;15.88;;;2.60;99.90;;;;;;5052682;28;20080;-74
2022/11/21 05:40:51;;;;;;;58.38;15.25;;;2.70;99.90;;;;;;5034400;28;20056;-74
2022/11/21 05:46:01;;;;;;;60.70;14.38;;;2.70;99.90;;;;;;5052479;28;20098;-74
2022/11/21 05:48:30;;;;;;;65.68;15.27;;;2.70;99.90;;;;;;5055566;28;20102;-73
2022/11/21 05:50:55;;;;;;;50.10;12.32;;;2.70;99.90;;;;;;5056430;28;20025;-73
2022/11/21 05:53:21;;;;;;;59.60;15.68;;;2.70;99.90;;;;;;5038219;28;20032;-74
2022/11/21 05:55:47;;;;;;;50.88;15.35;;;2.70;99.90;;;;;;5056104;28;20036;-74
2022/11/21 05:58:15;;;;;;;54.53;14.88;;;2.80;99.90;;;;;;5037955;28;20032;-74
2022/11/21 06:00:41;;;;;;;49.83;14.80;;;2.70;99.90;;;;;;5055596;28;20132;-74
2022/11/21 06:03:26;;;;;;;44.83;15.10;;;2.80;99.90;;;;;;5055896;28;20295;-74
2022/11/21 06:05:57;;;;;;;57.90;16.25;;;2.80;99.90;;;;;;5055967;28;20479;-73
2022/11/21 06:08:23;;;;;;;45.55;15.20;;;2.80;99.90;;;;;;5038039;28;20029;-74
2022/11/21 06:10:49;;;;;;;55.55;14.45;;;2.80;99.90;;;;;;5037751;28;20491;-74
2022/11/21 06:13:23;;;;;;;57.40;14.02;;;2.90;99.90;;;;;;5038020;28;20031;-73
2022/11/21 06:15:57;;;;;;;52.45;15.18;;;2.80;99.90;;;;;;5065501;28;20039;-74
2022/11/21 06:18:23;;;;;;;54.17;15.43;;;2.80;99.90;;;;;;5037436;28;20136;-74
2022/11/21 06:20:49;;;;;;;59.03;14.40;;;2.80;99.90;;;;;;5056461;28;20058;-75
2022/11/21 06:23:15;;;;;;;53.75;15.95;;;2.90;99.90;;;;;;5055292;28;20013;-74
2022/11/21 06:25:42;;;;;;;55.40;14.90;;;2.80;99.90;;;;;;5037132;28;20032;-74
2022/11/21 06:28:08;;;;;;;53.20;15.13;;;2.80;99.90;;;;;;5055453;28;20129;-74
2022/11/21 06:30:37;;;;;;;54.42;15.82;;;2.80;99.90;;;;;;5037317;28;20029;-74
2022/11/21 06:33:04;;;;;;;50.35;14.90;;;2.90;99.90;;;;;;5037084;28;20171;-76
2022/11/21 06:35:30;;;;;;;46.47;14.07;;;2.90;99.90;;;;;;5037215;28;20048;-76
2022/11/21 06:37:57;;;;;;;49.70;14.23;;;3.00;99.90;;;;;;5037116;28;20059;-77
2022/11/21 06:40:23;;;;;;;45.72;13.93;;;2.90;99.90;;;;;;5058060;28;20032;-78
2022/11/21 06:42:51;;;;;;;47.03;14.13;;;3.10;99.90;;;;;;5057557;28;20488;-78
2022/11/21 06:45:22;;;;;;;45.08;13.93;;;3.00;99.90;;;;;;5057722;28;20025;-78
2022/11/21 06:47:48;;;;;;;45.55;13.13;;;2.90;99.90;;;;;;5037383;28;20123;-78
2022/11/21 06:50:14;;;;;;;34.78;12.27;;;2.90;99.90;;;;;;5055241;28;20049;-78
2022/11/21 06:52:39;;;;;;;38.22;12.27;;;3.00;99.90;;;;;;5037504;28;20110;-78
2022/11/21 06:55:05;;;;;;;32.85;10.57;;;3.00;99.90;;;;;;5054852;28;20430;-78
2022/11/21 06:57:31;;;;;;;35.42;10.93;;;3.00;99.90;;;;;;5037006;28;20112;-80
2022/11/21 06:59:57;;;;;;;35.03;11.70;;;3.00;99.90;;;;;;5036765;28;20039;-78
2022/11/21 07:02:26;;;;;;;32.17;10.13;;;3.10;99.90;;;;;;5036957;28;20009;-78
2022/11/21 07:04:52;;;;;;;;;;;3.10;99.90;;;;;;5055629;28;20071;-80
2022/11/21 07:07:17;;;;;;;30.05;10.07;;;3.10;99.90;;;;;;5036838;28;20352;-77
2022/11/21 07:09:43;;;;;;;37.72;11.35;;;3.10;99.90;;;;;;5054482;28;20468;-77
2022/11/21 07:14:56;;;;;;;27.10;9.73;;;3.10;99.90;;;;;;5055146;28;20032;-78
2022/11/21 07:17:22;;;;;;;29.50;9.30;;;3.10;99.90;;;;;;5036688;28;20067;-77
2022/11/21 07:19:47;;;;;;;30.25;9.20;;;3.10;99.90;;;;;;5036432;28;20057;-78
2022/11/21 07:22:15;;;;;;;29.33;10.40;;;3.20;99.90;;;;;;5054457;28;20032;-79
2022/11/21 07:24:41;;;;;;;29.85;9.50;;;3.10;99.90;;;;;;5036511;28;20025;-79
2022/11/21 07:27:06;;;;;;;28.88;9.80;;;3.20;99.90;;;;;;5036573;28;20024;-80
2022/11/21 07:29:35;;;;;;;28.17;9.20;;;3.20;99.90;;;;;;5036177;28;20032;-78
2022/11/21 07:32:01;;;;;;;26.65;9.10;;;;;;;;;;5036217;28;20021;-78
2022/11/21 07:34:26;;;;;;;25.17;8.88;;;3.20;99.90;;;;;;5036666;28;20036;-76
2022/11/21 07:36:55;;;;;;;25.20;9.40;;;3.30;99.90;;;;;;5036134;28;20028;-76
2022/11/21 07:39:20;;;;;;;28.10;9.40;;;3.30;99.90;;;;;;5035986;28;20028;-76
2022/11/21 07:41:46;;;;;;;27.08;9.80;;;3.30;99.90;;;;;;5053946;28;20021;-76
2022/11/21 07:44:12;;;;;;;27.38;9.38;;;3.40;99.90;;;;;;5054121;28;20099;-76
2022/11/21 07:46:38;;;;;;;28.40;9.57;;;3.40;99.90;;;;;;5035997;28;20031;-76
2022/11/21 07:49:04;;;;;;;37.22;11.15;;;3.50;99.90;;;;;;5035917;28;20017;-76
2022/11/21 07:51:29;;;;;;;33.28;10.15;;;3.40;99.90;;;;;;5035724;28;20387;-77
2022/11/21 07:53:58;;;;;;;34.33;11.15;;;3.50;99.90;;;;;;5035659;28;20017;-76
2022/11/21 07:56:25;;;;;;;33.10;11.07;;;3.50;99.90;;;;;;5035873;28;20048;-76
2022/11/21 07:58:51;;;;;;;33.75;11.52;;;3.50;99.90;;;;;;5035724;28;20064;-76
2022/11/21 08:01:17;;;;;;;33.63;12.18;;;3.60;99.90;;;;;;5053737;28;20116;-76
2022/11/21 08:03:43;;;;;;;36.45;12.05;;;3.60;99.90;;;;;;5035818;28;20060;-76
2022/11/21 08:06:11;;;;;;;39.65;11.75;;;3.70;99.90;;;;;;5053706;28;20029;-76
2022/11/21 08:08:36;;;;;;;33.93;11.30;;;3.70;99.90;;;;;;5053773;28;20056;-79
2022/11/21 08:11:06;;;;;;;36.97;12.07;;;4.70;99.90;;;;;;5052843;28;20025;-77
2022/11/21 08:13:32;;;;;;;41.97;12.50;;;3.70;99.90;;;;;;5053436;28;20487;-76
2022/11/21 08:15:58;;;;;;;46.30;16.55;;;3.70;99.90;;;;;;5053447;28;20049;-76
2022/11/21 08:18:24;;;;;;;127.18;46.03;;;3.70;99.90;;;;;;5053363;28;20033;-76
2022/11/21 08:20:49;;;;;;;60.72;19.38;;;3.80;99.90;;;;;;5053302;28;20048;-76
2022/11/21 08:23:15;;;;;;;79.50;31.02;;;3.80;99.90;;;;;;5035624;28;20031;-76
2022/11/21 08:25:41;;;;;;;54.20;22.25;;;3.80;99.90;;;;;;5035474;28;20032;-76
2022/11/21 08:28:09;;;;;;;61.63;24.90;;;3.80;99.90;;;;;;5053362;28;20021;-76
2022/11/21 08:30:35;;;;;;;40.78;14.25;;;3.80;99.90;;;;;;5035500;28;20072;-76
2022/11/21 08:33:01;;;;;;;41.97;14.27;;;3.80;99.90;;;;;;5035480;28;20033;-76
2022/11/21 08:35:27;;;;;;;38.42;12.93;;;3.80;99.90;;;;;;5053494;28;20108;-76
2022/11/21 08:38:00;;;;;;;33.60;11.10;;;3.90;99.90;;;;;;5053330;28;20552;-76
2022/11/21 08:40:27;;;;;;;31.25;10.30;;;3.90;99.90;;;;;;5035571;28;20032;-76
2022/11/21 08:43:03;;;;;;;28.90;9.23;;;3.90;99.90;;;;;;5035584;28;20106;-76
2022/11/21 08:45:30;;;;;;;30.42;10.85;;;3.90;99.90;;;;;;5053263;28;20025;-76
2022/11/21 08:47:56;;;;;;;31.45;11.55;;;3.90;99.90;;;;;;5053275;28;20041;-76
2022/11/21 08:50:22;;;;;;;30.00;10.68;;;4.00;99.90;;;;;;5035375;28;20059;-76
2022/11/21 08:52:48;;;;;;;29.67;9.43;;;4.00;99.90;;;;;;5053298;28;20074;-76
2022/11/21 08:55:14;;;;;;;30.27;10.02;;;4.00;99.90;;;;;;5035465;28;20029;-76
2022/11/21 08:57:40;;;;;;;36.05;14.13;;;4.10;99.90;;;;;;5053506;28;20494;-76
2022/11/21 09:00:08;;;;;;;28.60;11.43;;;4.20;99.90;;;;;;5053620;28;20028;-76
2022/11/21 09:02:34;;;;;;;34.05;12.45;;;4.20;99.90;;;;;;5053757;28;20025;-76
2022/11/21 09:05:06;;;;;;;34.72;10.60;;;4.30;99.90;;;;;;5053136;28;20021;-76
2022/11/21 09:07:32;;;;;;;39.97;12.38;;;4.40;99.90;;;;;;5053047;28;20028;-76
2022/11/21 09:09:57;;;;;;;36.00;12.18;;;4.50;99.90;;;;;;5053647;28;20056;-76
2022/11/21 09:12:26;;;;;;;48.55;13.27;;;4.60;99.90;;;;;;5053803;28;20071;-76
2022/11/21 09:20:20;;;;;;;45.65;15.95;;;4.80;99.90;;;;;;5053228;28;20040;-76
2022/11/21 09:22:46;;;;;;;45.72;15.15;;;4.90;99.90;;;;;;5055928;28;20468;-76
2022/11/21 09:25:12;;;;;;;51.63;12.50;;;4.90;99.90;;;;;;5039051;28;20432;-75
2022/11/21 09:27:37;;;;;;;36.28;11.40;;;5.00;99.90;;;;;;5039198;28;20021;-74
2022/11/21 09:30:03;;;;;;;47.03;12.90;;;5.00;99.90;;;;;;5056916;28;20029;-74
2022/11/21 09:32:29;;;;;;;39.33;12.20;;;5.10;99.90;;;;;;5056796;28;20032;-74
2022/11/21 09:34:55;;;;;;;29.50;11.73;;;5.00;99.90;;;;;;5038789;28;20033;-74
2022/11/21 09:37:21;;;;;;;43.13;14.10;;;5.20;99.90;;;;;;5056481;28;20031;-76
2022/11/21 09:39:46;;;;;;;36.40;10.90;;;5.10;99.90;;;;;;5056373;28;20018;-75
2022/11/21 09:42:24;;;;;;;28.67;11.70;;;5.20;99.90;;;;;;5056688;28;20033;-75
2022/11/21 09:45:13;;;;;;;36.22;11.32;;;5.20;99.90;;;;;;5038842;28;20036;-75
2022/11/21 09:47:45;;;;;;;37.28;11.35;;;5.20;99.90;;;;;;5056599;28;20083;-74
2022/11/21 09:50:11;;;;;;;29.25;10.75;;;5.30;99.90;;;;;;5056382;28;20034;-74
2022/11/21 09:52:49;;;;;;;32.30;11.95;;;7.10;99.90;;;;;;5056375;28;20025;-74
2022/11/21 09:55:33;;;;;;;27.60;10.52;;;5.40;99.90;;;;;;5038421;28;20029;-74
2022/11/21 09:58:31;;;;;;;34.67;11.27;;;5.50;99.90;;;;;;5038347;28;20033;-74
2022/11/21 10:00:57;;;;;;;29.77;10.23;;;5.50;99.90;;;;;;5037687;28;20048;-74
2022/11/21 10:03:37;;;;;;;28.52;10.48;;;5.50;99.90;;;;;;5038868;28;20021;-74
2022/11/21 10:06:13;;;;;;;30.95;11.27;;;5.60;99.90;;;;;;5056207;28;20369;-74
2022/11/21 10:09:16;;;;;;;31.65;11.27;;;5.60;99.90;;;;;;5038156;28;20203;-74
2022/11/21 10:15:03;;;;;;;32.47;12.50;;;5.80;99.90;;;;;;5056288;28;20070;-74
2022/11/21 10:18:06;;;;;;;29.70;10.98;;;5.80;99.90;;;;;;5037989;28;20028;-74
2022/11/21 10:20:48;;;;;;;35.10;11.07;;;5.80;99.90;;;;;;5055716;28;20419;-75
2022/11/21 10:23:47;;;;;;;30.33;10.77;;;6.00;99.90;;;;;;5055641;28;20441;-75
2022/11/21 10:26:16;;;;;;;31.90;12.27;;;5.90;99.90;;;;;;5055724;28;20029;-75
2022/11/21 10:28:51;;;;;;;33.70;11.93;;;5.90;99.90;;;;;;5055490;28;20049;-75
2022/11/21 10:31:19;;;;;;;33.88;13.07;;;5.90;99.90;;;;;;5056135;28;20384;-75
2022/11/21 10:33:49;;;;;;;30.98;12.65;;;6.00;99.90;;;;;;5054773;28;20021;-74
2022/11/21 10:36:27;;;;;;;38.47;12.07;;;6.00;99.90;;;;;;5038044;28;20033;-75
2022/11/21 10:39:01;;;;;;;28.48;11.43;;;6.20;99.90;;;;;;5038780;28;20116;-76
2022/11/21 10:41:44;;;;;;;31.15;11.05;;;6.10;99.90;;;;;;5055971;28;20472;-76
2022/11/21 10:46:59;;;;;;;28.67;11.90;;;6.30;99.90;;;;;;5056447;28;20083;-76
2022/11/21 10:49:28;;;;;;;28.85;12.38;;;6.40;99.90;;;;;;5056158;28;20411;-76
2022/11/21 10:51:59;;;;;;;;;;;6.40;99.90;;;;;;5056440;28;20025;-76
2022/11/21 10:54:31;;;;;;;32.38;12.43;;;6.60;99.90;;;;;;5055609;28;19958;-76
2022/11/21 10:57:06;;;;;;;32.35;11.82;;;6.60;99.90;;;;;;5055851;28;20028;-76
2022/11/21 10:59:33;;;;;;;32.92;11.98;;;6.50;99.90;;;;;;5055698;28;20526;-74
2022/11/21 11:02:22;;;;;;;33.67;13.38;;;6.50;99.90;;;;;;5037451;28;20017;-74
2022/11/21 11:04:47;;;;;;;32.13;13.07;;;6.70;99.90;;;;;;5037358;28;20017;-74
2022/11/21 11:07:23;;;;;;;33.17;13.10;;;6.70;99.90;;;;;;5037423;28;20025;-74
2022/11/21 11:09:51;;;;;;;38.95;13.80;;;6.80;99.90;;;;;;5037610;28;20033;-74
2022/11/21 11:15:24;;;;;;;38.28;15.80;;;6.90;99.90;;;;;;5055871;28;20094;-75
2022/11/21 11:17:58;;;;;;;35.75;13.73;;;7.00;99.90;;;;;;5055122;28;20021;-75
2022/11/21 11:20:34;;;;;;;32.40;13.82;;;7.20;99.90;;;;;;5056397;28;20043;-75
2022/11/21 11:23:16;;;;;;;33.30;12.43;;;7.50;99.90;;;;;;5038629;28;20024;-75
2022/11/21 11:25:49;;;;;;;25.67;12.02;;;7.50;99.90;;;;;;5055492;28;20033;-74
2022/11/21 11:28:18;;;;;;;29.00;10.98;;;7.60;99.90;;;;;;5054726;28;20021;-74
2022/11/21 11:30:43;;;;;;;32.67;13.07;;;7.60;99.90;;;;;;5054677;28;20017;-74
2022/11/21 11:33:28;;;;;;;29.80;11.32;;;7.60;99.90;;;;;;5036684;28;20032;-74
2022/11/21 11:36:04;;;;;;;33.58;11.95;;;7.70;99.90;;;;;;5036950;28;20391;-74
2022/11/21 11:38:31;;;;;;;31.90;11.43;;;7.70;99.90;;;;;;5054729;28;20029;-74
2022/11/21 11:41:03;;;;;;;30.17;12.05;;;7.90;99.90;;;;;;5054292;28;20163;-74
2022/11/21 11:50:10;;;;;;;26.17;9.43;;;8.20;99.90;;;;;;5055202;28;20123;-73
2022/11/21 11:52:23;;;;;;;21.00;9.52;;;8.30;99.90;;;;;;5053775;28;20033;-74
2022/11/21 11:54:55;;;;;;;26.50;10.98;;;8.60;99.90;;;;;;5054066;28;20086;-74
2022/11/21 11:57:21;;;;;;;22.45;8.48;;;8.60;99.90;;;;;;5054559;28;20048;-74
2022/11/21 12:00:06;;;;;;;18.83;7.10;;;9.00;99.90;;;;;;5036193;28;20021;-74
2022/11/21 12:03:23;;;;;;;19.85;8.55;;;9.00;99.90;;;;;;5054551;28;20108;-74
2022/11/21 12:06:11;;;;;;;16.35;7.07;;;9.10;99.90;;;;;;5032518;28;20041;-74
2022/11/21 12:09:13;;;;;;;18.23;6.35;;;9.40;99.90;;;;;;5036394;28;20021;-74
2022/11/21 12:12:06;;;;;;;14.52;4.85;;;9.40;99.90;;;;;;5043545;28;20045;-76
2022/11/21 12:17:49;;;;;;;6.43;1.63;;;9.70;99.90;;;;;;5022493;28;20029;-76
2022/11/21 12:20:23;;;;;;;9.00;1.33;;;9.60;99.90;;;;;;5062944;22;20043;-76
2022/11/21 12:22:52;;;;;;;7.28;1.05;;;9.70;99.90;;;;;;5036035;28;20369;-76
2022/11/21 12:25:31;;;;;;;6.35;0.80;;;9.60;99.90;;;;;;5035559;28;20391;-76
2022/11/21 12:27:58;;;;;;;6.20;1.10;;;9.40;99.90;;;;;;5054081;28;20033;-75
2022/11/21 12:30:27;;;;;;;6.78;0.98;;;;;;;;;;5035918;28;20050;-75
2022/11/21 12:33:19;;;;;;;3.55;1.13;;;9.70;99.90;;;;;;5054760;28;20032;-76
2022/11/21 12:36:13;;;;;;;2.95;0.30;;;9.70;99.90;;;;;;5036476;28;20387;-76
2022/11/21 12:38:56;;;;;;;3.88;0.30;;;9.60;99.90;;;;;;5036350;28;20040;-76
2022/11/21 12:44:55;;;;;;;6.80;0.90;;;9.30;99.90;;;;;;5054921;28;20103;-76
2022/11/21 12:47:27;;;;;;;9.82;1.33;;;;;;;;;;5035789;28;20365;-76
2022/11/21 12:56:12;;;;;;;5.18;0.13;;;9.10;99.90;;;;;;5053253;28;20518;-75
2022/11/21 12:58:42;;;;;;;7.22;0.68;;;8.90;99.90;;;;;;5039322;28;20021;-75
2022/11/21 13:01:26;;;;;;;8.93;0.82;;;9.10;99.90;;;;;;5057019;28;20033;-75
2022/11/21 13:04:01;;;;;;;4.93;1.58;;;9.30;99.90;;;;;;5039059;28;20021;-75
2022/11/21 13:06:30;;;;;;;5.13;0.68;;;9.10;99.90;;;;;;5057028;28;20021;-75
2022/11/21 13:09:00;;;;;;;2.55;0.95;;;9.10;99.90;;;;;;5038893;28;20111;-75
2022/11/21 13:14:54;;;;;;;4.68;1.08;;;9.10;99.90;;;;;;5057741;28;20387;-75
2022/11/21 13:17:33;;;;;;;5.72;1.67;;;9.10;99.90;;;;;;5038997;28;20154;-75
2022/11/21 13:20:13;;;;;;;3.35;1.17;;;9.10;99.90;;;;;;5056894;28;20025;-74
2022/11/21 13:22:39;;;;;;;6.60;1.58;;;9.10;99.90;;;;;;5057295;28;20066;-76
2022/11/21 13:25:30;;;;;;;6.88;1.38;;;9.10;99.90;;;;;;5038554;28;20060;-75
2022/11/21 13:28:18;;;;;;;7.45;1.90;;;9.10;99.90;;;;;;5055773;28;20061;-75
2022/11/21 13:30:47;;;;;;;6.47;1.73;;;9.10;99.90;;;;;;5056417;28;20107;-75
2022/11/21 13:33:44;;;;;;;11.93;1.55;;;9.10;99.90;;;;;;5056743;28;20025;-75
2022/11/21 13:36:28;;;;;;;7.55;2.05;;;;;;;;;;5022671;28;20497;-75
2022/11/21 13:38:54;;;;;;;3.20;0.90;;;8.90;99.90;;;;;;5056298;28;20029;-74
2022/11/21 13:44:31;;;;;;;6.32;1.30;;;8.70;99.90;;;;;;5056471;28;20090;-73